Time;durP1;ratioP1;P1;durP2;ratioP2;P2;SDS_P1;SDS_P2;PMS_P1;PMS_P2;Temp;Humidity;BMP_temperature;BMP_pressure;BME280_temperature;BME280_humidity;BME280_pressure;Samples;Min_cycle;Max_cycle;Signal;HPM_P1;HPM_P2
2022/12/07 00:01:26;;;;;;;14.07;9.20;;;;;;;1.90;100.00;98235.31;5003383;28;20029;-66
2022/12/07 00:03:56;;;;;;;15.38;9.30;;;;;;;1.85;100.00;98230.47;5018614;28;20037;-64
2022/12/07 00:06:22;;;;;;;15.18;9.07;;;;;;;1.87;100.00;98232.94;4999460;28;20095;-62
2022/12/07 00:08:48;;;;;;;14.68;9.40;;;;;;;1.80;100.00;98222.25;4985638;28;20025;-64
2022/12/07 00:11:16;;;;;;;16.77;9.18;;;;;;;1.57;100.00;98187.88;5014748;28;20033;-65
2022/12/07 00:13:42;;;;;;;15.55;9.40;;;;;;;1.82;100.00;98220.41;5014203;28;20034;-60
2022/12/07 00:16:32;;;;;;;23.20;12.73;;;;;;;1.44;100.00;98166.50;4979387;28;20797;-63
2022/12/07 00:18:58;;;;;;;22.15;11.50;;;;;;;1.59;100.00;98209.09;4997056;28;20084;-68
2022/12/07 00:21:29;;;;;;;22.77;12.73;;;;;;;1.54;100.00;98214.50;5002201;28;20416;-66
2022/12/07 00:23:56;;;;;;;19.90;11.98;;;;;;;1.60;100.00;98218.41;4979659;28;20037;-63
2022/12/07 00:26:32;;;;;;;23.40;12.45;;;;;;;1.57;100.00;98190.44;5013076;28;20121;-61
2022/12/07 00:29:01;;;;;;;20.23;11.20;;;;;;;1.77;100.00;98222.47;4998906;28;20031;-63
2022/12/07 00:31:29;;;;;;;17.75;10.82;;;;;;;1.80;100.00;98222.25;4996065;28;20030;-66
2022/12/07 00:33:56;;;;;;;18.58;10.70;;;;;;;1.80;100.00;98214.56;5018709;28;20104;-66
2022/12/07 00:36:23;;;;;;;18.38;9.85;;;;;;;1.82;100.00;98209.34;5010966;28;20175;-62
2022/12/07 00:38:49;;;;;;;15.00;9.80;;;;;;;1.77;100.00;98199.41;4992254;28;20116;-63
2022/12/07 00:41:17;;;;;;;18.42;9.18;;;;;;;1.95;100.00;98205.06;5002783;28;20107;-61
2022/12/07 00:43:44;;;;;;;16.92;9.52;;;;;;;1.91;100.00;98201.06;4984967;28;20598;-65
2022/12/07 00:46:10;;;;;;;17.02;9.43;;;;;;;1.85;100.00;98186.91;4981764;28;20117;-62
2022/12/07 00:48:36;;;;;;;17.33;9.80;;;;;;;1.92;100.00;98185.56;5002810;28;20132;-61
2022/12/07 00:51:02;;;;;;;19.88;10.85;;;;;;;1.63;100.00;98137.97;5014549;28;20038;-63
2022/12/07 00:53:28;;;;;;;23.70;10.55;;;;;;;1.91;100.00;98180.53;5005293;28;20045;-63
2022/12/07 00:55:53;;;;;;;17.60;9.43;;;;;;;1.97;100.00;98184.44;5000518;28;20064;-65
2022/12/07 00:58:19;;;;;;;15.77;8.98;;;;;;;1.96;100.00;98172.56;5011934;28;20094;-62
2022/12/07 01:00:45;;;;;;;16.52;7.97;;;;;;;2.05;100.00;98174.53;4997476;28;20036;-64
2022/12/07 01:03:12;;;;;;;12.73;7.43;;;;;;;2.03;100.00;98177.19;4995728;28;20104;-61
2022/12/07 01:05:38;;;;;;;14.68;7.97;;;;;;;2.22;100.00;98187.03;5013620;28;20044;-62
2022/12/07 01:08:04;;;;;;;15.35;7.80;;;;;;;2.23;100.00;98175.84;5015844;28;20030;-63
2022/12/07 01:10:31;;;;;;;14.45;7.03;;;;;;;2.19;100.00;98183.84;4994904;28;20448;-64
2022/12/07 01:12:57;;;;;;;12.30;6.55;;;;;;;2.25;100.00;98186.84;4999659;28;20088;-64
2022/12/07 01:15:23;;;;;;;9.65;5.80;;;;;;;2.30;100.00;98189.09;4987491;28;20037;-65
2022/12/07 01:17:48;;;;;;;9.35;5.45;;;;;;;2.03;100.00;98131.03;4990185;28;20037;-62
2022/12/07 01:20:15;;;;;;;9.85;5.53;;;;;;;2.41;100.00;98191.75;5000138;28;20034;-62
2022/12/07 01:22:41;;;;;;;8.23;4.90;;;;;;;2.53;100.00;98187.53;5000326;28;20022;-64
2022/12/07 01:25:08;;;;;;;11.30;5.40;;;;;;;2.26;100.00;98144.03;5014226;28;20096;-63
2022/12/07 01:27:34;;;;;;;8.38;5.13;;;;;;;2.64;100.00;98185.03;4998554;28;20129;-63
2022/12/07 01:30:00;;;;;;;8.18;5.25;;;;;;;2.63;100.00;98178.28;4998149;28;20037;-64
2022/12/07 01:32:25;;;;;;;8.07;5.45;;;;;;;2.70;100.00;98178.66;5000484;28;20040;-64
2022/12/07 01:34:51;;;;;;;9.52;4.85;;;;;;;2.44;100.00;98135.06;4994622;28;20524;-64
2022/12/07 01:37:16;;;;;;;7.28;4.88;;;;;;;2.79;100.00;98179.78;4998124;28;20044;-65
2022/12/07 01:39:42;;;;;;;9.38;5.00;;;;;;;2.80;100.00;98177.13;4998452;28;20045;-62
2022/12/07 01:42:11;;;;;;;8.05;4.68;;;;;;;2.95;100.00;98176.97;5004527;28;20057;-62
2022/12/07 01:45:14;;;;;;;8.07;4.63;;;;;;;2.97;100.00;98169.97;4984380;28;20061;-67
2022/12/07 01:47:41;;;;;;;8.45;4.78;;;;;;;2.78;100.00;98163.56;5002873;28;20110;-63
2022/12/07 01:50:07;;;;;;;7.65;4.55;;;;;;;2.79;100.00;98164.38;5002175;28;20473;-61
2022/12/07 01:52:33;;;;;;;8.65;4.90;;;;;;;2.84;100.00;98168.25;4997640;28;20025;-63
2022/12/07 01:55:02;;;;;;;8.70;4.95;;;;;;;2.85;100.00;98163.97;5007577;28;20044;-60
2022/12/07 01:57:29;;;;;;;8.23;4.60;;;;;;;2.86;100.00;98170.72;5001053;28;20397;-65
2022/12/07 01:59:55;;;;;;;7.95;4.65;;;;;;;2.82;100.00;98147.00;5002288;28;20061;-65
2022/12/07 02:02:26;;;;;;;8.57;4.88;;;;;;;2.62;100.00;98129.63;5003233;28;20041;-62
2022/12/07 02:04:53;;;;;;;8.02;4.95;;;;;;;2.88;100.00;98158.59;4999125;28;20034;-61
2022/12/07 02:07:20;;;;;;;8.88;4.93;;;;;;;2.91;100.00;98168.66;5000549;28;20049;-62
2022/12/07 02:09:45;;;;;;;7.35;4.18;;;;;;;2.89;100.00;98171.34;4983329;28;20033;-63
2022/12/07 02:12:11;;;;;;;7.22;4.43;;;;;;;2.89;100.00;98181.59;5015692;28;20033;-63
2022/12/07 02:14:37;;;;;;;9.68;4.70;;;;;;;2.72;100.00;98161.44;5003093;28;20660;-68
2022/12/07 02:17:34;;;;;;;7.45;4.88;;;;;;;2.88;100.00;98169.72;5000981;28;20045;-60
2022/12/07 02:20:07;;;;;;;8.48;4.20;;;;;;;2.85;100.00;98157.06;4978919;28;20073;-63
2022/12/07 02:22:54;;;;;;;8.85;4.90;;;;;;;2.87;100.00;98159.53;5020829;28;20033;-65
2022/12/07 02:25:38;;;;;;;9.70;4.60;;;;;;;2.84;100.00;98160.56;5004445;28;20021;-62
2022/12/07 02:28:19;;;;;;;5.88;3.22;;;;;;;2.84;100.00;98152.84;5003300;28;20037;-63
2022/12/07 02:30:47;;;;;;;7.45;4.18;;;;;;;2.79;100.00;98156.69;5003537;28;20112;-65
2022/12/07 02:33:24;;;;;;;7.47;4.30;;;;;;;2.78;100.00;98147.34;4984501;28;20030;-62
2022/12/07 02:35:59;;;;;;;8.70;4.40;;;;;;;2.55;100.00;98102.72;5002231;28;20033;-63
2022/12/07 02:38:35;;;;;;;7.53;4.15;;;;;;;2.88;100.00;98140.63;5019895;28;20034;-65
2022/12/07 02:41:05;;;;;;;8.82;4.57;;;;;;;2.81;100.00;98140.25;5005550;28;20045;-61
2022/12/07 02:43:34;;;;;;;8.07;4.28;;;;;;;2.84;100.00;98139.22;4982524;28;20057;-60
2022/12/07 02:46:04;;;;;;;7.00;4.13;;;;;;;2.78;100.00;98143.03;5007987;28;20049;-64
2022/12/07 02:48:32;;;;;;;7.70;4.32;;;;;;;2.78;100.00;98144.78;5025415;28;20588;-63
2022/12/07 02:50:57;;;;;;;6.72;4.22;;;;;;;2.66;100.00;98134.41;4990104;28;20030;-59
2022/12/07 02:53:38;;;;;;;7.45;3.95;;;;;;;2.44;100.00;98093.22;5005549;28;20029;-64
2022/12/07 02:56:15;;;;;;;7.70;4.32;;;;;;;2.73;100.00;98145.09;5004651;28;20038;-64
2022/12/07 02:59:14;;;;;;;7.07;4.03;;;;;;;2.82;100.00;98143.63;5003535;28;20132;-66
2022/12/07 03:02:08;;;;;;;7.80;4.00;;;;;;;2.84;100.00;98145.16;5008731;28;20084;-65
2022/12/07 03:04:54;;;;;;;8.38;4.30;;;;;;;2.76;100.00;98138.94;5002254;28;20060;-61
2022/12/07 03:07:40;;;;;;;8.32;4.15;;;;;;;2.50;100.00;98082.50;4985730;28;20038;-66
2022/12/07 03:10:15;;;;;;;7.13;3.67;;;;;;;2.77;100.00;98141.38;5004689;28;20026;-62
2022/12/07 03:12:52;;;;;;;7.90;3.72;;;;;;;2.77;100.00;98138.00;5008213;28;20038;-62
2022/12/07 03:15:24;;;;;;;6.65;3.80;;;;;;;2.76;100.00;98134.63;5003630;28;20079;-59
2022/12/07 03:17:50;;;;;;;7.00;3.80;;;;;;;2.77;100.00;98128.53;5002605;28;20033;-63
2022/12/07 03:20:19;;;;;;;6.70;3.67;;;;;;;2.78;100.00;98127.63;5017161;28;20049;-61
2022/12/07 03:22:45;;;;;;;7.85;4.38;;;;;;;2.43;100.00;98084.69;5021074;28;20034;-61
2022/12/07 03:25:14;;;;;;;6.32;3.58;;;;;;;2.68;100.00;98122.31;4999095;28;20080;-62
2022/12/07 03:27:43;;;;;;;6.97;3.80;;;;;;;2.87;100.00;98131.28;4996314;28;20132;-63
2022/12/07 03:30:12;;;;;;;7.03;3.90;;;;;;;2.67;100.00;98092.44;5003666;28;20029;-60
2022/12/07 03:32:41;;;;;;;7.15;3.50;;;;;;;2.68;100.00;98091.50;5016714;28;20044;-64
2022/12/07 03:35:07;;;;;;;;;;;;;;;2.74;100.00;98127.94;5013456;28;20504;-62
2022/12/07 03:37:57;;;;;;;6.75;3.17;;;;;;;2.71;100.00;98131.53;5004002;28;19925;-61
2022/12/07 03:40:50;;;;;;;7.03;3.72;;;;;;;2.70;100.00;98127.31;5016439;28;20030;-61
2022/12/07 03:43:17;;;;;;;6.30;3.08;;;;;;;2.73;100.00;98121.97;5001428;28;20037;-63
2022/12/07 03:45:46;;;;;;;8.02;3.30;;;;;;;2.84;100.00;98118.66;5016128;28;20485;-61
2022/12/07 03:48:30;;;;;;;7.45;2.75;;;;;;;2.46;100.00;98070.81;4992155;28;20034;-63
2022/12/07 03:51:22;;;;;;;6.10;3.25;;;;;;;2.86;100.00;98122.75;5001419;28;20097;-62
2022/12/07 03:54:05;;;;;;;6.95;3.22;;;;;;;2.85;100.00;98107.47;4997048;28;20022;-63
2022/12/07 03:56:31;;;;;;;6.70;3.40;;;;;;;2.76;100.00;98108.13;5016723;28;20065;-62
2022/12/07 03:58:56;;;;;;;6.07;3.22;;;;;;;2.77;100.00;98112.31;5018649;28;20555;-63
2022/12/07 04:01:23;;;;;;;6.80;3.40;;;;;;;2.75;100.00;98101.34;5021506;28;20038;-61
2022/12/07 04:03:48;;;;;;;6.47;2.97;;;;;;;2.53;100.00;98072.03;4984051;28;20389;-64
2022/12/07 04:06:14;;;;;;;5.40;3.13;;;;;;;2.81;100.00;98111.16;4999434;28;20048;-65
2022/12/07 04:08:39;;;;;;;6.38;3.25;;;;;;;2.54;100.00;98049.75;5004719;28;20026;-63
2022/12/07 04:11:05;;;;;;;5.43;2.90;;;;;;;2.56;100.00;98040.22;5004896;28;20038;-63
2022/12/07 04:14:17;;;;;;;6.70;3.33;;;;;;;2.89;100.00;98091.72;5001930;28;20040;-60
2022/12/07 04:16:15;;;;;;;6.43;3.15;;;;;;;2.76;100.00;98083.25;5001989;28;20041;-62
2022/12/07 04:18:41;;;;;;;6.70;3.55;;;;;;;2.68;100.00;98080.41;5016425;28;20038;-62
2022/12/07 04:21:06;;;;;;;6.53;3.75;;;;;;;2.83;100.00;98079.34;5006792;28;20041;-62
2022/12/07 04:23:32;;;;;;;6.07;3.50;;;;;;;2.56;100.00;98047.91;5019011;28;20026;-60
2022/12/07 04:25:57;;;;;;;6.18;2.70;;;;;;;2.66;100.00;98088.22;5018221;28;20042;-62
2022/12/07 04:28:22;;;;;;;5.75;3.03;;;;;;;2.37;100.00;98046.63;5016207;28;20038;-64
2022/12/07 04:30:48;;;;;;;6.25;3.65;;;;;;;2.65;100.00;98094.28;4999276;28;20034;-61
2022/12/07 04:33:13;;;;;;;6.25;3.05;;;;;;;2.40;100.00;98082.34;4998402;28;20076;-64
2022/12/07 04:35:39;;;;;;;6.85;3.22;;;;;;;2.36;100.00;98083.47;5017702;28;20045;-61
2022/12/07 04:38:04;;;;;;;5.78;2.97;;;;;;;2.48;100.00;98092.06;5015478;28;20030;-63
2022/12/07 04:40:29;;;;;;;6.25;3.10;;;;;;;2.52;100.00;98084.97;4998601;28;20525;-66
2022/12/07 04:42:55;;;;;;;6.32;2.80;;;;;;;2.52;100.00;98090.09;4998284;28;20654;-63
2022/12/07 04:45:20;;;;;;;5.18;2.83;;;;;;;2.49;100.00;98086.00;5002144;28;20041;-61
2022/12/07 04:47:46;;;;;;;6.57;3.40;;;;;;;2.50;100.00;98083.34;4980723;28;20129;-65
2022/12/07 04:50:11;;;;;;;5.80;3.25;;;;;;;2.50;100.00;98078.22;5001266;28;20053;-62
2022/12/07 04:52:37;;;;;;;5.97;2.95;;;;;;;2.63;100.00;98085.88;5003010;28;20033;-63
2022/12/07 04:55:02;;;;;;;5.45;2.88;;;;;;;2.28;100.00;98027.56;5001994;28;20069;-66
2022/12/07 04:57:28;;;;;;;5.72;2.92;;;;;;;2.63;100.00;98087.63;5002376;28;20133;-63
2022/12/07 04:59:53;;;;;;;5.55;2.70;;;;;;;2.48;100.00;98071.53;4999608;28;20037;-62
2022/12/07 05:02:18;;;;;;;5.30;2.72;;;;;;;2.51;100.00;98076.47;5000843;28;20057;-63
2022/12/07 05:04:44;;;;;;;5.28;2.80;;;;;;;2.60;100.00;98091.22;5006542;28;20034;-61
2022/12/07 05:07:09;;;;;;;5.50;2.70;;;;;;;2.61;100.00;98081.75;5001123;28;20056;-63
2022/12/07 05:09:35;;;;;;;5.30;2.70;;;;;;;2.58;100.00;98076.84;5000685;28;20481;-65
2022/12/07 05:12:00;;;;;;;5.70;2.80;;;;;;;2.44;100.00;98052.16;5003901;28;20029;-61
2022/12/07 05:14:26;;;;;;;5.53;2.60;;;;;;;2.58;100.00;98069.16;5001533;28;20407;-62
2022/12/07 05:16:53;;;;;;;5.60;2.72;;;;;;;2.31;100.00;98031.66;5005373;28;20038;-64
2022/12/07 05:19:19;;;;;;;7.35;2.42;;;;;;;2.60;100.00;98092.97;5012942;28;20029;-63
2022/12/07 05:21:44;;;;;;;5.25;2.35;;;;;;;2.44;100.00;98082.94;5003701;28;20045;-63
2022/12/07 05:24:12;;;;;;;5.13;2.40;;;;;;;2.35;100.00;98081.00;5002031;28;20041;-62
2022/12/07 05:26:38;;;;;;;6.25;3.08;;;;;;;2.36;100.00;98090.38;5003088;28;20025;-64
2022/12/07 05:29:04;;;;;;;5.63;2.85;;;;;;;2.18;100.00;98077.84;4998569;28;20042;-62
2022/12/07 05:31:29;;;;;;;4.97;2.60;;;;;;;2.35;100.00;98089.53;5015390;28;20025;-60
2022/12/07 05:33:54;;;;;;;4.90;2.33;;;;;;;2.43;100.00;98071.88;5003102;28;20096;-61
2022/12/07 05:36:20;;;;;;;8.00;2.80;;;;;;;2.29;100.00;98049.72;5016844;28;20164;-63
2022/12/07 05:38:46;;;;;;;6.40;2.95;;;;;;;2.52;100.00;98087.53;5005067;28;20030;-61
2022/12/07 05:44:04;;;;;;;5.80;2.90;;;;;;;2.42;100.00;98093.31;5004307;28;20056;-62
2022/12/07 05:46:29;;;;;;;6.43;2.67;;;;;;;2.42;100.00;98088.19;4994632;28;20022;-61
2022/12/07 05:48:55;;;;;;;5.88;3.00;;;;;;;2.50;100.00;98091.03;4999804;28;20494;-64
2022/12/07 05:51:20;;;;;;;6.32;3.17;;;;;;;2.54;100.00;98098.50;4999214;28;20100;-63
2022/12/07 05:53:46;;;;;;;6.97;3.20;;;;;;;2.54;100.00;98096.78;5002067;28;20089;-60
2022/12/07 05:56:11;;;;;;;7.18;3.20;;;;;;;2.43;100.00;98089.00;5003855;28;20071;-64
2022/12/07 06:01:21;;;;;;;9.23;3.60;;;;;;;2.34;100.00;98089.63;5005693;28;20088;-66
2022/12/07 06:03:46;;;;;;;6.35;3.38;;;;;;;1.94;100.00;98026.50;5003417;28;20030;-63
2022/12/07 06:06:11;;;;;;;6.50;3.20;;;;;;;2.28;100.00;98098.56;5019416;28;20030;-63
2022/12/07 06:08:37;;;;;;;6.00;3.13;;;;;;;2.31;100.00;98099.16;5002767;28;20045;-65
2022/12/07 06:13:57;;;;;;;8.82;4.18;;;;;;;1.90;100.00;98074.59;4957119;28;20054;-63
2022/12/07 06:16:22;;;;;;;6.82;4.18;;;;;;;2.18;100.00;98113.78;5019454;28;20057;-63
2022/12/07 06:18:48;;;;;;;9.15;4.22;;;;;;;1.83;100.00;98073.38;5005781;28;20033;-63
2022/12/07 06:21:14;;;;;;;9.77;5.10;;;;;;;1.95;100.00;98102.50;5003936;28;20574;-64
2022/12/07 06:23:39;;;;;;;9.50;5.22;;;;;;;2.02;100.00;98110.59;5005700;28;20049;-62
2022/12/07 06:26:05;;;;;;;9.90;5.72;;;;;;;1.97;100.00;98112.66;5018736;28;20049;-63
2022/12/07 06:28:30;;;;;;;11.57;5.72;;;;;;;1.65;100.00;98060.03;5003167;28;20104;-61
2022/12/07 06:31:00;;;;;;;12.73;5.90;;;;;;;1.95;100.00;98106.81;4992371;28;20033;-64
2022/12/07 06:33:26;;;;;;;;;;;;;;;1.88;100.00;98107.22;4996786;28;20192;-61
2022/12/07 06:35:51;;;;;;;10.13;5.40;;;;;;;1.83;100.00;98101.56;4999147;28;19999;-63
2022/12/07 06:38:17;;;;;;;9.35;5.38;;;;;;;1.75;100.00;98100.44;5013155;28;20600;-64
2022/12/07 06:40:42;;;;;;;9.00;4.78;;;;;;;1.82;100.00;98096.53;4984614;28;20548;-65
2022/12/07 06:43:08;;;;;;;8.88;4.97;;;;;;;1.85;100.00;98104.84;5001248;28;20142;-64
2022/12/07 06:45:33;;;;;;;9.60;5.50;;;;;;;1.76;100.00;98089.28;4981826;28;20037;-66
2022/12/07 06:47:58;;;;;;;9.50;5.65;;;;;;;1.80;100.00;98098.41;5002304;28;20125;-65
2022/12/07 06:50:24;;;;;;;7.50;4.85;;;;;;;1.70;100.00;98101.56;4994230;28;21098;-64
2022/12/07 06:52:51;;;;;;;10.52;5.47;;;;;;;1.75;100.00;98100.44;4993411;28;20033;-62
2022/12/07 06:55:16;;;;;;;9.55;5.10;;;;;;;1.43;100.00;98064.94;4998931;28;20404;-62
2022/12/07 06:57:41;;;;;;;10.88;5.90;;;;;;;1.66;100.00;98089.03;4999315;28;20046;-62
2022/12/07 07:00:07;;;;;;;10.23;4.97;;;;;;;1.75;100.00;98095.31;4998728;28;20862;-64
2022/12/07 07:02:33;;;;;;;9.52;4.88;;;;;;;1.72;100.00;98089.47;5012695;28;20060;-65
2022/12/07 07:04:58;;;;;;;9.60;4.60;;;;;;;1.78;100.00;98106.19;5000584;28;20036;-66
2022/12/07 07:07:23;;;;;;;9.20;4.95;;;;;;;1.41;100.00;98064.25;4973768;28;20033;-61
2022/12/07 07:09:49;;;;;;;8.48;4.80;;;;;;;1.72;100.00;98112.53;5002056;28;20397;-67
2022/12/07 07:12:14;;;;;;;8.48;4.88;;;;;;;1.67;100.00;98101.75;5013966;28;20164;-64
2022/12/07 07:14:40;;;;;;;8.75;4.57;;;;;;;1.71;100.00;98115.19;4995157;28;20524;-65
2022/12/07 07:17:05;;;;;;;10.43;5.00;;;;;;;1.72;100.00;98122.78;5001178;28;20034;-62
2022/12/07 07:19:31;;;;;;;8.60;4.50;;;;;;;1.69;100.00;98119.59;5008805;28;20022;-61
2022/12/07 07:21:56;;;;;;;7.85;4.32;;;;;;;1.65;100.00;98120.75;5000579;28;20123;-62
2022/12/07 07:24:22;;;;;;;10.07;4.63;;;;;;;1.60;100.00;98122.78;5013688;28;20625;-62
2022/12/07 07:26:47;;;;;;;12.02;4.78;;;;;;;1.72;100.00;98122.78;4995927;28;20061;-63
2022/12/07 07:29:12;;;;;;;8.65;4.07;;;;;;;1.69;100.00;98111.91;5000926;28;20034;-62
2022/12/07 07:31:38;;;;;;;9.07;4.18;;;;;;;1.82;100.00;98117.88;5002639;28;20400;-62
2022/12/07 07:34:04;;;;;;;7.13;3.47;;;;;;;1.94;100.00;98123.13;5005498;28;20044;-63
2022/12/07 07:36:29;;;;;;;7.25;3.75;;;;;;;1.92;100.00;98123.22;5001175;28;20532;-62
2022/12/07 07:38:55;;;;;;;5.28;2.42;;;;;;;1.97;100.00;98126.31;5001350;28;20033;-63
2022/12/07 07:41:20;;;;;;;5.47;2.58;;;;;;;2.12;100.00;98132.16;5004532;28;20041;-62
2022/12/07 07:43:45;;;;;;;5.32;2.40;;;;;;;2.24;100.00;98128.72;4986495;28;20445;-62
2022/12/07 07:46:11;;;;;;;4.90;2.35;;;;;;;2.24;100.00;98135.63;5019898;28;20473;-62
2022/12/07 07:48:36;;;;;;;5.97;2.60;;;;;;;2.24;100.00;98121.03;5006178;28;20051;-65
2022/12/07 07:51:06;;;;;;;5.07;2.75;;;;;;;2.00;100.00;98087.63;4984464;28;20036;-62
2022/12/07 07:53:31;;;;;;;4.95;2.47;;;;;;;2.34;100.00;98133.25;5001584;28;20026;-62
2022/12/07 07:55:58;;;;;;;5.00;2.10;;;;;;;2.41;100.00;98135.31;4998771;28;20045;-63
2022/12/07 07:58:23;;;;;;;6.00;2.78;;;;;;;2.31;100.00;98093.22;5002444;28;20029;-63
2022/12/07 08:00:49;;;;;;;4.97;2.25;;;;;;;2.44;100.00;98129.94;5000763;28;20038;-65
2022/12/07 08:03:14;;;;;;;4.95;2.17;;;;;;;2.46;100.00;98129.84;5020313;28;20033;-62
2022/12/07 08:05:40;;;;;;;4.95;2.25;;;;;;;2.38;100.00;98134.69;4998680;28;20060;-63
2022/12/07 08:08:05;;;;;;;6.05;2.72;;;;;;;2.39;100.00;98144.00;5016084;28;20029;-62
2022/12/07 08:10:31;;;;;;;5.65;2.38;;;;;;;2.13;100.00;98102.19;5017188;28;20033;-62
2022/12/07 08:13:13;;;;;;;5.38;2.20;;;;;;;2.42;100.00;98136.13;5017499;28;20076;-62
2022/12/07 08:15:41;;;;;;;6.13;2.17;;;;;;;2.26;100.00;98090.16;5013060;28;20469;-62
2022/12/07 08:18:07;;;;;;;4.75;2.38;;;;;;;2.59;100.00;98132.38;5016655;28;20089;-65
2022/12/07 08:20:33;;;;;;;6.40;2.13;;;;;;;2.59;100.00;98142.66;5010482;28;20065;-64
2022/12/07 08:22:59;;;;;;;5.40;2.40;;;;;;;2.62;100.00;98150.16;4990122;28;20610;-62
2022/12/07 08:25:25;;;;;;;5.80;2.42;;;;;;;2.31;100.00;98109.44;5019386;28;20032;-63
2022/12/07 08:27:51;;;;;;;5.28;2.15;;;;;;;2.64;100.00;98151.66;5011042;28;20508;-62
2022/12/07 08:30:17;;;;;;;5.18;2.30;;;;;;;2.60;100.00;98147.69;5002684;28;20037;-62
2022/12/07 08:32:44;;;;;;;5.85;2.40;;;;;;;2.62;100.00;98147.59;5009630;28;20648;-62
2022/12/07 08:35:09;;;;;;;5.47;2.42;;;;;;;2.70;100.00;98145.28;5002340;28;20061;-62
2022/12/07 08:37:35;;;;;;;4.95;2.58;;;;;;;2.48;100.00;98105.72;4983377;28;20021;-62
2022/12/07 08:40:00;;;;;;;8.43;2.80;;;;;;;2.78;100.00;98145.59;5008901;28;20041;-62
2022/12/07 08:42:29;;;;;;;5.47;2.55;;;;;;;2.70;100.00;98155.56;4997523;28;20029;-61
2022/12/07 08:44:56;;;;;;;5.53;2.33;;;;;;;2.58;100.00;98156.44;4996443;28;20029;-62
2022/12/07 08:47:23;;;;;;;6.40;2.90;;;;;;;2.54;100.00;98158.38;4986522;28;20061;-64
2022/12/07 08:49:49;;;;;;;5.45;2.65;;;;;;;2.54;100.00;98154.97;5012483;28;20032;-62
2022/12/07 08:52:15;;;;;;;6.28;2.47;;;;;;;2.63;100.00;98155.19;4983212;28;20124;-61
2022/12/07 08:54:41;;;;;;;7.57;2.47;;;;;;;2.56;100.00;98158.28;5005949;28;20026;-62
2022/12/07 08:57:07;;;;;;;5.88;2.50;;;;;;;2.58;100.00;98148.72;5003390;28;20417;-61
2022/12/07 08:59:33;;;;;;;8.73;2.63;;;;;;;2.66;100.00;98160.09;4998996;28;20142;-64
2022/12/07 09:01:59;;;;;;;9.50;3.80;;;;;;;2.59;100.00;98155.47;4983238;28;20047;-62
2022/12/07 09:04:24;;;;;;;10.07;3.15;;;;;;;2.07;100.00;98073.47;5014821;28;20026;-64
2022/12/07 09:06:50;;;;;;;9.20;2.70;;;;;;;2.57;100.00;98152.22;4999307;28;20092;-63
2022/12/07 09:09:15;;;;;;;8.52;2.38;;;;;;;2.54;100.00;98152.41;4999336;28;20038;-64
2022/12/07 09:11:41;;;;;;;5.22;2.47;;;;;;;2.67;100.00;98158.34;5000540;28;20025;-61
2022/12/07 09:14:06;;;;;;;7.00;3.05;;;;;;;2.74;100.00;98158.72;4981425;28;20033;-63
2022/12/07 09:16:32;;;;;;;9.35;3.92;;;;;;;2.77;100.00;98148.25;4986285;28;20036;-63
2022/12/07 09:18:57;;;;;;;7.03;3.38;;;;;;;2.64;100.00;98120.88;5015439;28;20517;-62
2022/12/07 09:21:23;;;;;;;10.70;5.18;;;;;;;2.79;100.00;98165.22;5002585;28;20052;-63
2022/12/07 09:23:48;;;;;;;8.85;4.32;;;;;;;2.86;100.00;98160.47;5003842;28;20479;-61
2022/12/07 09:26:14;;;;;;;5.88;2.88;;;;;;;2.89;100.00;98155.94;5000289;28;20116;-64
2022/12/07 09:28:39;;;;;;;6.40;3.13;;;;;;;2.88;100.00;98151.75;4983137;28;20026;-63
2022/12/07 09:31:05;;;;;;;7.82;3.53;;;;;;;2.92;100.00;98139.50;4983344;28;20033;-63
2022/12/07 09:33:30;;;;;;;6.72;3.10;;;;;;;2.88;100.00;98148.31;4995356;28;20665;-62
2022/12/07 09:35:56;;;;;;;6.40;3.10;;;;;;;2.95;100.00;98152.09;4996107;28;20848;-62
2022/12/07 09:38:21;;;;;;;5.35;2.42;;;;;;;2.91;100.00;98144.75;5000365;28;20041;-63
2022/12/07 09:40:47;;;;;;;6.93;2.60;;;;;;;2.97;100.00;98163.09;4977371;28;21012;-65
2022/12/07 09:43:15;;;;;;;5.68;2.40;;;;;;;2.98;100.00;98159.59;4990978;28;20026;-65
2022/12/07 09:45:42;;;;;;;6.25;3.00;;;;;;;2.64;100.00;98104.66;4966382;28;20766;-61
2022/12/07 09:48:18;;;;;;;5.55;2.67;;;;;;;2.64;100.00;98109.78;4981961;28;20092;-64
2022/12/07 09:50:44;;;;;;;5.47;2.35;;;;;;;2.60;100.00;98113.50;5009623;28;20472;-65
2022/12/07 09:53:24;;;;;;;6.43;2.33;;;;;;;2.86;100.00;98150.19;4995570;28;20112;-63
2022/12/07 09:55:50;;;;;;;6.03;1.80;;;;;;;2.51;100.00;98107.25;5010396;28;20045;-63
2022/12/07 09:58:26;;;;;;;4.82;1.83;;;;;;;2.86;100.00;98153.56;4976266;28;20049;-62
2022/12/07 10:00:57;;;;;;;4.10;1.73;;;;;;;2.93;100.00;98156.53;5009365;28;20034;-65
2022/12/07 10:03:23;;;;;;;5.07;1.60;;;;;;;2.85;100.00;98130.59;4972876;28;20117;-63
2022/12/07 10:05:50;;;;;;;5.80;1.83;;;;;;;2.95;100.00;98144.41;5007466;28;20037;-63
2022/12/07 10:08:17;;;;;;;4.00;1.70;;;;;;;2.98;100.00;98139.06;4995896;28;20029;-63
2022/12/07 10:10:42;;;;;;;4.03;1.77;;;;;;;3.17;100.00;98142.88;4991860;28;20038;-63
2022/12/07 10:13:09;;;;;;;6.18;1.90;;;;;;;3.31;100.00;98126.50;4989138;28;20475;-64
2022/12/07 10:15:56;;;;;;;5.35;2.10;;;;;;;3.41;100.00;98120.59;5007584;28;20038;-62
2022/12/07 10:18:38;;;;;;;4.35;1.77;;;;;;;3.41;100.00;98117.16;4990239;28;20136;-63
2022/12/07 10:21:20;;;;;;;4.80;1.85;;;;;;;3.05;99.25;98055.50;4992101;28;20030;-64
2022/12/07 10:24:08;;;;;;;5.80;1.95;;;;;;;3.26;99.65;98083.94;4992085;28;20171;-65
2022/12/07 10:26:36;;;;;;;5.88;2.15;;;;;;;3.57;98.80;98107.41;4970501;28;20513;-65
2022/12/07 10:29:19;;;;;;;4.63;1.80;;;;;;;3.55;97.12;98106.69;5007681;28;20026;-66
2022/12/07 10:31:46;;;;;;;7.55;1.73;;;;;;;3.62;98.46;98102.75;4990244;28;20496;-62
2022/12/07 10:34:29;;;;;;;4.50;1.55;;;;;;;3.46;94.64;98071.38;5006897;28;20030;-64
2022/12/07 10:37:12;;;;;;;4.53;1.40;;;;;;;3.73;93.17;98099.38;4990912;28;20094;-63
2022/12/07 10:39:55;;;;;;;4.15;1.60;;;;;;;3.78;95.45;98099.06;5005632;28;20025;-64
2022/12/07 10:42:23;;;;;;;3.70;1.40;;;;;;;3.71;96.94;98079.88;5010994;28;20029;-65
2022/12/07 10:45:05;;;;;;;5.07;1.52;;;;;;;3.85;92.81;98085.63;5009463;28;20026;-62
2022/12/07 10:48:06;;;;;;;4.30;1.80;;;;;;;3.95;93.23;98078.03;4997970;28;20018;-62
2022/12/07 10:50:56;;;;;;;5.63;1.60;;;;;;;4.00;89.54;98083.63;4994076;28;20140;-64
2022/12/07 10:53:21;;;;;;;;;;;;;;;4.02;89.82;98084.34;4995722;28;20621;-62
2022/12/07 10:56:14;;;;;;;5.28;1.17;;;;;;;4.14;87.52;98079.19;4995530;28;19918;-62
2022/12/07 10:59:15;;;;;;;4.80;1.38;;;;;;;4.28;85.64;98075.56;4987596;28;20037;-63
2022/12/07 11:02:08;;;;;;;4.43;1.60;;;;;;;4.47;82.26;98070.63;5012078;28;20089;-62
2022/12/07 11:05:09;;;;;;;4.70;1.77;;;;;;;4.47;82.09;98077.53;4994378;28;20038;-64
2022/12/07 11:07:51;;;;;;;6.10;1.92;;;;;;;4.56;84.24;98069.94;4994441;28;20048;-62
2022/12/07 11:10:27;;;;;;;6.22;1.88;;;;;;;4.55;82.61;98067.47;4993730;28;20026;-64
2022/12/07 11:12:58;;;;;;;3.78;1.67;;;;;;;4.55;85.85;98067.47;4987242;28;20065;-61
2022/12/07 11:15:42;;;;;;;5.07;1.90;;;;;;;4.29;86.58;98012.84;4992119;28;20037;-64
2022/12/07 11:18:22;;;;;;;3.92;1.50;;;;;;;4.28;84.21;98018.94;4989049;28;20030;-64
2022/12/07 11:21:17;;;;;;;5.20;1.75;;;;;;;4.74;83.88;98057.34;5010813;28;20077;-65
2022/12/07 11:24:06;;;;;;;6.20;1.80;;;;;;;4.77;86.13;98049.38;4978638;28;20052;-61
2022/12/07 11:26:54;;;;;;;4.38;1.77;;;;;;;4.88;80.15;98045.13;4981860;28;20069;-64
2022/12/07 11:29:24;;;;;;;5.82;2.40;;;;;;;4.94;80.54;98042.06;4994273;28;20037;-64
2022/12/07 11:32:08;;;;;;;3.90;1.50;;;;;;;5.00;82.82;98037.25;4995285;28;20112;-62
2022/12/07 11:34:45;;;;;;;5.57;1.70;;;;;;;4.82;82.10;97985.44;4992044;28;20033;-63
2022/12/07 11:37:15;;;;;;;4.45;1.88;;;;;;;5.13;81.74;98018.19;4975447;28;20038;-61
2022/12/07 11:39:50;;;;;;;;;;;;;;;5.17;80.30;98020.41;4997173;28;20083;-63
2022/12/07 11:42:21;;;;;;;4.03;1.48;;;;;;;5.07;78.79;97992.94;5006433;28;19940;-62
2022/12/07 11:45:17;;;;;;;3.90;1.40;;;;;;;5.23;78.59;98008.78;4990752;28;20176;-60
2022/12/07 11:47:54;;;;;;;3.47;1.20;;;;;;;5.34;78.81;98013.88;4991374;28;20087;-63
2022/12/07 11:50:35;;;;;;;4.80;1.75;;;;;;;5.36;84.58;98008.59;5008120;28;20449;-64
2022/12/07 11:53:14;;;;;;;3.78;1.20;;;;;;;5.47;82.76;98007.69;4992687;28;20113;-62
2022/12/07 11:56:04;;;;;;;4.57;1.73;;;;;;;5.53;83.75;98015.75;4988289;28;20029;-64